Time;durP1;ratioP1;P1;durP2;ratioP2;P2;SDS_P1;SDS_P2;PMS_P1;PMS_P2;Temp;Humidity;BMP_temperature;BMP_pressure;BME280_temperature;BME280_humidity;BME280_pressure;Samples;Min_cycle;Max_cycle;Signal;HPM_P1;HPM_P2
2022/06/27 00:02:07;;;;;;;1.10;0.88;;;;;;;;;;5012436;28;20043;-85
2022/06/27 00:04:32;;;;;;;0.65;0.32;;;;;;;;;;5024111;28;20362;-83
2022/06/27 00:06:58;;;;;;;0.20;0.20;;;;;;;;;;5026694;28;20025;-86
2022/06/27 00:09:25;;;;;;;0.75;0.43;;;;;;;;;;5009287;28;20097;-83
2022/06/27 00:11:53;;;;;;;1.02;0.52;;;;;;;;;;5007678;28;20033;-84
2022/06/27 00:14:19;;;;;;;0.45;0.45;;;;;;;;;;5008319;28;20021;-84
2022/06/27 00:16:47;;;;;;;2.25;0.80;;;;;;;;;;5005871;28;20117;-84
2022/06/27 00:19:12;;;;;;;0.93;0.60;;;;;;;;;;5006796;28;20402;-84
2022/06/27 00:21:40;;;;;;;0.47;0.47;;;;;;;;;;4999158;28;20054;-86
2022/06/27 00:24:08;;;;;;;1.65;1.10;;;;;;;;;;5002490;28;20030;-84
2022/06/27 00:26:33;;;;;;;3.40;1.05;;;;;;;;;;4999575;28;20469;-84
2022/06/27 00:29:01;;;;;;;0.68;0.65;;;;;;;;;;5002706;28;20026;-86
2022/06/27 00:31:29;;;;;;;0.68;0.52;;;;;;;;;;5035487;28;20026;-85
2022/06/27 00:34:00;;;;;;;0.47;0.47;;;;;;;;;;5002868;28;20041;-85
2022/06/27 00:36:26;;;;;;;0.40;0.40;;;;;;;;;;4999708;28;20056;-85
2022/06/27 00:38:57;;;;;;;3.83;1.10;;;;;;;;;;5002401;28;20446;-84
2022/06/27 00:41:24;;;;;;;0.82;0.50;;;;;;;;;;5020159;28;20037;-85
2022/06/27 00:43:52;;;;;;;0.50;0.50;;;;;;;;;;5012568;28;20042;-83
2022/06/27 00:46:20;;;;;;;0.65;0.65;;;;;;;;;;5005272;28;20061;-86
2022/06/27 00:48:45;;;;;;;0.30;0.30;;;;;;;;;;4999730;28;20033;-85
2022/06/27 00:51:10;;;;;;;0.80;0.80;;;;;;;;;;5000497;28;20036;-84
2022/06/27 00:53:38;;;;;;;1.15;0.70;;;;;;;;;;4994879;28;20034;-83
2022/06/27 00:56:04;;;;;;;0.93;0.55;;;;;;;;;;4994657;28;20036;-85
2022/06/27 00:58:30;;;;;;;1.00;0.77;;;;;;;;;;4995912;28;20033;-85
2022/06/27 01:00:56;;;;;;;1.55;0.73;;;;;;;;;;5006221;28;20423;-84
2022/06/27 01:03:21;;;;;;;0.60;0.52;;;;;;;;;;5015163;28;20122;-86
2022/06/27 01:05:52;;;;;;;0.90;0.80;;;;;;;;;;4998820;28;20033;-84
2022/06/27 01:08:26;;;;;;;0.60;0.60;;;;;;;;;;4999299;28;20037;-84
2022/06/27 01:10:53;;;;;;;1.08;0.57;;;;;;;;;;5008606;28;20033;-85
2022/06/27 01:13:22;;;;;;;0.95;0.57;;;;;;;;;;4997988;28;20022;-82
2022/06/27 01:15:48;;;;;;;0.95;0.93;;;;;;;;;;4980346;28;20114;-85
2022/06/27 01:18:15;;;;;;;0.68;0.68;;;;;;;;;;4996410;28;20117;-85
2022/06/27 01:20:45;;;;;;;0.47;0.47;;;;;;;;;;5006489;28;20092;-84
2022/06/27 01:23:15;;;;;;;0.50;0.50;;;;;;;;;;5011078;28;20597;-85
2022/06/27 01:25:43;;;;;;;0.40;0.32;;;;;;;;;;4999344;28;20121;-84
2022/06/27 01:28:09;;;;;;;1.67;1.10;;;;;;;;;;4996888;28;20037;-85
2022/06/27 01:30:34;;;;;;;0.93;0.43;;;;;;;;;;5015749;28;20431;-84
2022/06/27 01:33:00;;;;;;;0.45;0.45;;;;;;;;;;4998464;28;20156;-85
2022/06/27 01:35:27;;;;;;;0.68;0.68;;;;;;;;;;4995310;28;20057;-85
2022/06/27 01:37:53;;;;;;;1.30;0.70;;;;;;;;;;4999618;28;20121;-86
2022/06/27 01:40:21;;;;;;;1.10;0.38;;;;;;;;;;4996590;28;20106;-85
2022/06/27 01:42:49;;;;;;;0.77;0.77;;;;;;;;;;4996611;28;20026;-86
2022/06/27 01:45:14;;;;;;;3.17;1.30;;;;;;;;;;4997890;28;20113;-86
2022/06/27 01:47:40;;;;;;;1.80;1.15;;;;;;;;;;4998631;28;20498;-86
2022/06/27 01:50:08;;;;;;;1.17;0.88;;;;;;;;;;4998201;28;20087;-85
2022/06/27 01:52:34;;;;;;;0.52;0.52;;;;;;;;;;4998169;28;20033;-86
2022/06/27 01:55:02;;;;;;;0.45;0.45;;;;;;;;;;5002726;28;20038;-85
2022/06/27 01:57:32;;;;;;;0.60;0.60;;;;;;;;;;4998224;28;20028;-84
2022/06/27 01:59:57;;;;;;;0.70;0.60;;;;;;;;;;4996031;28;20030;-85
2022/06/27 02:02:23;;;;;;;0.60;0.60;;;;;;;;;;4995391;28;20071;-82
2022/06/27 02:04:52;;;;;;;0.75;0.75;;;;;;;;;;4998929;28;20017;-85
2022/06/27 02:07:20;;;;;;;0.50;0.50;;;;;;;;;;4995837;28;20454;-85
2022/06/27 02:09:48;;;;;;;0.85;0.80;;;;;;;;;;4992250;28;20034;-84
2022/06/27 02:12:19;;;;;;;1.48;1.30;;;;;;;;;;4988934;28;20450;-84
2022/06/27 02:14:47;;;;;;;1.05;0.90;;;;;;;;;;4998622;28;20427;-85
2022/06/27 02:17:12;;;;;;;0.60;0.57;;;;;;;;;;4997621;28;20026;-86
2022/06/27 02:19:38;;;;;;;0.65;0.65;;;;;;;;;;5004987;28;20035;-84
2022/06/27 02:22:06;;;;;;;2.72;0.77;;;;;;;;;;5013686;28;20028;-84
2022/06/27 02:24:34;;;;;;;1.02;0.93;;;;;;;;;;4982929;28;20113;-84
2022/06/27 02:27:09;;;;;;;1.08;1.00;;;;;;;;;;4998369;28;20022;-82
2022/06/27 02:29:35;;;;;;;1.40;1.05;;;;;;;;;;5013143;28;20414;-84
2022/06/27 02:32:01;;;;;;;1.08;0.98;;;;;;;;;;5012597;28;20029;-84
2022/06/27 02:34:28;;;;;;;1.20;1.05;;;;;;;;;;4996808;28;20048;-83
2022/06/27 02:36:56;;;;;;;0.90;0.60;;;;;;;;;;5006654;28;20026;-85
2022/06/27 02:39:23;;;;;;;2.53;1.60;;;;;;;;;;4994827;28;20030;-84
2022/06/27 02:41:56;;;;;;;0.73;0.60;;;;;;;;;;5014256;28;20113;-82
2022/06/27 02:44:22;;;;;;;1.00;0.88;;;;;;;;;;5014075;28;20054;-83
2022/06/27 02:46:51;;;;;;;1.77;0.98;;;;;;;;;;4994641;28;20058;-85
2022/06/27 02:49:17;;;;;;;0.88;0.88;;;;;;;;;;5003581;28;20017;-84
2022/06/27 02:51:49;;;;;;;1.50;0.88;;;;;;;;;;4994728;28;20455;-84
2022/06/27 02:54:19;;;;;;;0.57;0.57;;;;;;;;;;4998582;28;20053;-85
2022/06/27 02:57:29;;;;;;;0.45;0.30;;;;;;;;;;5003775;28;20029;-84
2022/06/27 02:59:56;;;;;;;1.55;1.17;;;;;;;;;;5013401;28;20046;-83
2022/06/27 03:02:23;;;;;;;2.05;0.98;;;;;;;;;;4980631;28;20045;-84
2022/06/27 03:04:48;;;;;;;0.85;0.85;;;;;;;;;;4998958;28;20029;-83
2022/06/27 03:07:16;;;;;;;0.30;0.30;;;;;;;;;;5010854;28;20029;-84
2022/06/27 03:09:41;;;;;;;1.95;0.45;;;;;;;;;;5004569;28;20025;-84
2022/06/27 03:12:09;;;;;;;0.73;0.57;;;;;;;;;;4993788;28;20084;-84
2022/06/27 03:14:34;;;;;;;0.50;0.50;;;;;;;;;;4996757;28;20025;-85
2022/06/27 03:17:00;;;;;;;1.17;1.02;;;;;;;;;;5006216;28;20034;-85
2022/06/27 03:19:26;;;;;;;1.63;0.65;;;;;;;;;;5001539;28;20029;-84
2022/06/27 03:21:53;;;;;;;2.30;1.02;;;;;;;;;;5012516;28;20061;-83
2022/06/27 03:24:21;;;;;;;2.67;0.88;;;;;;;;;;4996394;28;20021;-84
2022/06/27 03:26:52;;;;;;;0.40;0.40;;;;;;;;;;4996882;28;20083;-82
2022/06/27 03:29:17;;;;;;;1.95;0.80;;;;;;;;;;4996586;28;20023;-84
2022/06/27 03:31:45;;;;;;;0.50;0.50;;;;;;;;;;4996891;28;20483;-84
2022/06/27 03:34:11;;;;;;;0.73;0.45;;;;;;;;;;4997391;28;20053;-85
2022/06/27 03:36:41;;;;;;;0.75;0.75;;;;;;;;;;5003583;28;20537;-84
2022/06/27 03:39:10;;;;;;;1.63;0.55;;;;;;;;;;5009117;28;20034;-84
2022/06/27 03:41:40;;;;;;;1.35;0.55;;;;;;;;;;5003651;28;20025;-82
2022/06/27 03:44:11;;;;;;;0.95;0.50;;;;;;;;;;5014131;28;20030;-85
2022/06/27 03:46:41;;;;;;;1.17;0.75;;;;;;;;;;5000839;28;20025;-85
2022/06/27 03:51:52;;;;;;;2.28;1.05;;;;;;;;;;5008590;28;20033;-83
2022/06/27 03:54:20;;;;;;;3.05;1.38;;;;;;;;;;5010939;28;20052;-83
2022/06/27 03:56:50;;;;;;;1.05;0.85;;;;;;;;;;5000768;28;20037;-84
2022/06/27 03:59:18;;;;;;;1.08;0.82;;;;;;;;;;5012710;28;20026;-84
2022/06/27 04:01:44;;;;;;;2.80;1.52;;;;;;;;;;4996602;28;20109;-83
2022/06/27 04:04:11;;;;;;;2.88;0.40;;;;;;;;;;4993400;28;20034;-83
2022/06/27 04:06:36;;;;;;;2.20;1.00;;;;;;;;;;4994234;28;20030;-85
2022/06/27 04:09:04;;;;;;;2.13;1.13;;;;;;;;;;5006762;28;20022;-83
2022/06/27 04:11:29;;;;;;;0.93;0.93;;;;;;;;;;5016626;28;20037;-83
2022/06/27 04:13:55;;;;;;;0.65;0.43;;;;;;;;;;5025674;28;20163;-85
2022/06/27 04:16:22;;;;;;;1.27;0.55;;;;;;;;;;5001679;28;20455;-83
2022/06/27 04:18:48;;;;;;;0.47;0.47;;;;;;;;;;5008342;28;20321;-85
2022/06/27 04:21:15;;;;;;;0.70;0.50;;;;;;;;;;5014150;28;20111;-84
2022/06/27 04:23:40;;;;;;;2.10;1.08;;;;;;;;;;4993998;28;20023;-86
2022/06/27 04:26:06;;;;;;;1.52;0.65;;;;;;;;;;4995354;28;20118;-83
2022/06/27 04:28:35;;;;;;;0.95;0.82;;;;;;;;;;4995820;28;20084;-84
2022/06/27 04:31:03;;;;;;;1.63;1.50;;;;;;;;;;4984895;28;20033;-83
2022/06/27 04:33:29;;;;;;;0.52;0.52;;;;;;;;;;5000135;28;20465;-83
2022/06/27 04:35:57;;;;;;;0.40;0.17;;;;;;;;;;5001277;28;20034;-83
2022/06/27 04:38:27;;;;;;;0.55;0.55;;;;;;;;;;5005873;28;20036;-85
2022/06/27 04:40:55;;;;;;;0.52;0.52;;;;;;;;;;5014625;28;20033;-84
2022/06/27 04:43:26;;;;;;;2.13;0.90;;;;;;;;;;4997996;28;20050;-84
2022/06/27 04:45:52;;;;;;;0.40;0.40;;;;;;;;;;4992171;28;20029;-85
2022/06/27 04:48:18;;;;;;;2.58;0.65;;;;;;;;;;5002355;28;20030;-85
2022/06/27 04:50:44;;;;;;;1.75;1.27;;;;;;;;;;4999363;28;20305;-84
2022/06/27 04:53:09;;;;;;;1.33;1.08;;;;;;;;;;4999237;28;20033;-84
2022/06/27 04:55:37;;;;;;;2.13;1.02;;;;;;;;;;5000493;28;20056;-83
2022/06/27 04:58:03;;;;;;;0.38;0.38;;;;;;;;;;5007512;28;20032;-82
2022/06/27 05:00:28;;;;;;;2.63;1.33;;;;;;;;;;5031515;28;20354;-84
2022/06/27 05:02:54;;;;;;;1.77;1.25;;;;;;;;;;4992817;28;20088;-84
2022/06/27 05:05:19;;;;;;;0.85;0.85;;;;;;;;;;4991367;28;20022;-83
2022/06/27 05:07:47;;;;;;;0.85;0.70;;;;;;;;;;5010282;28;20025;-82
2022/06/27 05:10:14;;;;;;;0.52;0.52;;;;;;;;;;5000294;28;20022;-83
2022/06/27 05:12:40;;;;;;;0.80;0.80;;;;;;;;;;5015142;28;20492;-83
2022/06/27 05:15:06;;;;;;;0.63;0.57;;;;;;;;;;4996089;28;20025;-82
2022/06/27 05:17:31;;;;;;;2.10;1.10;;;;;;;;;;5003777;28;20032;-84
2022/06/27 05:19:59;;;;;;;1.27;0.93;;;;;;;;;;5015157;28;20387;-84
2022/06/27 05:22:27;;;;;;;5.88;1.25;;;;;;;;;;5002802;28;20457;-84
2022/06/27 05:24:52;;;;;;;1.95;1.52;;;;;;;;;;5013578;28;20117;-84
2022/06/27 05:27:22;;;;;;;1.77;0.82;;;;;;;;;;5022736;28;20104;-85
2022/06/27 05:29:47;;;;;;;1.38;0.70;;;;;;;;;;5000451;28;20026;-82
2022/06/27 05:32:15;;;;;;;1.98;1.23;;;;;;;;;;4994705;28;20435;-83
2022/06/27 05:34:41;;;;;;;2.55;1.15;;;;;;;;;;5011850;28;20029;-84
2022/06/27 05:37:06;;;;;;;1.73;1.00;;;;;;;;;;5014226;28;20096;-84
2022/06/27 05:39:33;;;;;;;2.22;1.83;;;;;;;;;;5001623;28;20029;-83
2022/06/27 05:41:59;;;;;;;1.45;0.82;;;;;;;;;;5002382;28;20096;-84
2022/06/27 05:44:25;;;;;;;2.28;1.23;;;;;;;;;;4989075;28;20452;-84
2022/06/27 05:46:50;;;;;;;1.98;1.27;;;;;;;;;;4999773;28;20049;-82
2022/06/27 05:49:16;;;;;;;0.85;0.60;;;;;;;;;;4990231;28;20022;-83
2022/06/27 05:51:41;;;;;;;1.23;1.10;;;;;;;;;;5008751;28;20021;-83
2022/06/27 05:54:10;;;;;;;1.80;1.35;;;;;;;;;;5001119;28;20030;-84
2022/06/27 05:56:36;;;;;;;0.85;0.85;;;;;;;;;;5014892;28;20030;-85
2022/06/27 05:59:07;;;;;;;1.75;1.48;;;;;;;;;;5002674;28;20042;-84
2022/06/27 06:01:33;;;;;;;2.35;1.42;;;;;;;;;;5005372;28;20521;-84
2022/06/27 06:03:59;;;;;;;2.88;1.75;;;;;;;;;;4994999;28;20037;-85
2022/06/27 06:06:29;;;;;;;1.33;0.85;;;;;;;;;;4996420;28;20026;-83
2022/06/27 06:08:55;;;;;;;0.85;0.70;;;;;;;;;;5005594;28;20029;-86
2022/06/27 06:11:21;;;;;;;1.27;1.05;;;;;;;;;;4999545;28;20030;-84
2022/06/27 06:13:47;;;;;;;8.95;1.27;;;;;;;;;;4995996;28;20164;-85
2022/06/27 06:16:16;;;;;;;1.20;1.00;;;;;;;;;;4994357;28;20112;-84
2022/06/27 06:18:44;;;;;;;1.50;1.13;;;;;;;;;;4989685;28;20332;-83
2022/06/27 06:21:10;;;;;;;0.73;0.57;;;;;;;;;;5020193;28;20033;-84
2022/06/27 06:23:38;;;;;;;1.55;0.98;;;;;;;;;;4988524;28;20026;-83
2022/06/27 06:29:25;;;;;;;1.77;1.27;;;;;;;;;;5011432;28;20041;-84
2022/06/27 06:31:50;;;;;;;1.25;1.15;;;;;;;;;;5009529;28;20034;-84
2022/06/27 06:34:18;;;;;;;0.77;0.77;;;;;;;;;;4997254;28;20091;-83
2022/06/27 06:36:44;;;;;;;1.77;1.13;;;;;;;;;;4997831;28;20033;-86
2022/06/27 06:39:14;;;;;;;1.70;1.50;;;;;;;;;;4998811;28;20030;-85
2022/06/27 06:41:41;;;;;;;1.02;0.95;;;;;;;;;;4998095;28;20032;-84
2022/06/27 06:44:07;;;;;;;6.13;1.30;;;;;;;;;;4995121;28;20034;-85
2022/06/27 06:46:36;;;;;;;2.30;1.88;;;;;;;;;;5011915;28;20026;-86
2022/06/27 06:49:12;;;;;;;4.35;1.77;;;;;;;;;;4997424;28;20033;-84
2022/06/27 06:51:39;;;;;;;2.78;1.77;;;;;;;;;;5002134;28;20029;-86
2022/06/27 06:54:08;;;;;;;1.35;1.25;;;;;;;;;;5006568;28;20132;-84
2022/06/27 06:56:34;;;;;;;3.40;1.85;;;;;;;;;;4997504;28;20029;-83
2022/06/27 06:59:01;;;;;;;0.73;0.65;;;;;;;;;;5010220;28;20032;-80
2022/06/27 07:01:31;;;;;;;1.85;1.48;;;;;;;;;;5010517;28;20474;-82
2022/06/27 07:03:59;;;;;;;1.88;1.52;;;;;;;;;;4997933;28;20026;-82
2022/06/27 07:06:26;;;;;;;3.50;2.30;;;;;;;;;;5033297;28;20041;-83
2022/06/27 07:08:57;;;;;;;2.50;0.95;;;;;;;;;;5026081;28;20037;-82
2022/06/27 07:11:27;;;;;;;1.98;1.52;;;;;;;;;;4999350;28;20030;-81
2022/06/27 07:13:56;;;;;;;2.35;0.85;;;;;;;;;;4993836;28;20408;-82
2022/06/27 07:16:27;;;;;;;5.40;1.92;;;;;;;;;;4990778;28;20041;-82
2022/06/27 07:18:54;;;;;;;1.38;1.27;;;;;;;;;;4992719;28;20037;-82
2022/06/27 07:21:21;;;;;;;1.95;1.55;;;;;;;;;;4993517;28;20442;-81
2022/06/27 07:23:48;;;;;;;1.95;1.17;;;;;;;;;;5002772;28;20089;-81
2022/06/27 07:26:20;;;;;;;1.50;1.00;;;;;;;;;;4997698;28;20068;-81
2022/06/27 07:28:46;;;;;;;1.75;1.13;;;;;;;;;;5013096;28;20034;-81
2022/06/27 07:31:12;;;;;;;1.05;0.95;;;;;;;;;;5012233;28;20030;-80
2022/06/27 07:33:51;;;;;;;2.08;1.77;;;;;;;;;;5012713;28;20910;-78
2022/06/27 07:36:32;;;;;;;2.22;1.65;;;;;;;;;;5012869;28;20117;-78
2022/06/27 07:38:58;;;;;;;1.70;1.27;;;;;;;;;;5014168;28;20033;-77
2022/06/27 07:41:24;;;;;;;3.33;1.73;;;;;;;;;;5011780;28;20045;-77
2022/06/27 07:43:50;;;;;;;4.50;2.15;;;;;;;;;;5004243;28;20458;-80
2022/06/27 07:46:17;;;;;;;3.00;1.88;;;;;;;;;;5015374;28;20080;-80
2022/06/27 07:48:44;;;;;;;2.40;2.08;;;;;;;;;;4996975;28;20030;-81
2022/06/27 07:51:10;;;;;;;1.88;1.73;;;;;;;;;;5012755;28;20037;-81
2022/06/27 07:53:36;;;;;;;2.03;1.20;;;;;;;;;;5013925;28;20029;-82
2022/06/27 07:56:06;;;;;;;1.95;1.23;;;;;;;;;;4997053;28;20061;-81
2022/06/27 07:58:38;;;;;;;1.55;1.45;;;;;;;;;;4997077;28;20022;-80
2022/06/27 08:01:04;;;;;;;;;;;;;;;;;;4990595;28;20037;-81
2022/06/27 08:03:39;;;;;;;1.75;1.50;;;;;;;;;;5013689;28;20055;-83
2022/06/27 08:06:18;;;;;;;3.92;2.33;;;;;;;;;;5002548;28;20061;-81
2022/06/27 08:08:46;;;;;;;3.65;1.92;;;;;;;;;;5010166;28;20025;-83
2022/06/27 08:11:15;;;;;;;1.65;1.50;;;;;;;;;;5002528;28;20030;-81
2022/06/27 08:13:44;;;;;;;3.83;2.28;;;;;;;;;;5001181;28;20025;-81
2022/06/27 08:16:12;;;;;;;2.78;1.90;;;;;;;;;;5021330;28;20029;-81
2022/06/27 08:18:39;;;;;;;2.88;1.65;;;;;;;;;;5006261;28;20491;-81
2022/06/27 08:21:04;;;;;;;3.50;2.15;;;;;;;;;;5016540;28;20034;-82
2022/06/27 08:23:31;;;;;;;3.17;1.70;;;;;;;;;;5023249;28;20022;-81
2022/06/27 08:25:59;;;;;;;4.43;3.17;;;;;;;;;;5035759;28;20457;-81
2022/06/27 08:28:26;;;;;;;6.78;2.60;;;;;;;;;;5027588;28;20025;-81
2022/06/27 08:30:52;;;;;;;7.32;2.85;;;;;;;;;;4999957;28;20030;-81
2022/06/27 08:33:18;;;;;;;2.53;1.90;;;;;;;;;;4990881;28;20088;-81
2022/06/27 08:35:47;;;;;;;2.72;2.15;;;;;;;;;;5003376;28;20139;-81
2022/06/27 08:38:17;;;;;;;4.43;2.72;;;;;;;;;;4989624;28;20041;-80
2022/06/27 08:40:43;;;;;;;3.50;2.03;;;;;;;;;;5017071;28;20025;-81
2022/06/27 08:43:12;;;;;;;3.60;3.17;;;;;;;;;;5021300;28;20033;-80
2022/06/27 08:45:38;;;;;;;2.63;1.83;;;;;;;;;;4985595;28;20050;-80
2022/06/27 08:48:07;;;;;;;4.47;2.47;;;;;;;;;;4997484;28;20085;-80
2022/06/27 08:50:38;;;;;;;4.63;2.28;;;;;;;;;;4998284;28;20024;-80
2022/06/27 08:53:04;;;;;;;3.30;2.13;;;;;;;;;;4991880;28;20025;-80
2022/06/27 08:55:33;;;;;;;4.40;2.00;;;;;;;;;;4999916;28;20036;-80
2022/06/27 08:58:05;;;;;;;2.75;1.60;;;;;;;;;;4997367;28;20032;-80
2022/06/27 09:00:37;;;;;;;2.28;2.08;;;;;;;;;;5015013;28;20029;-79
2022/06/27 09:03:03;;;;;;;2.70;2.45;;;;;;;;;;5016604;28;20036;-80
2022/06/27 09:05:32;;;;;;;4.38;3.33;;;;;;;;;;4998673;28;20505;-80
2022/06/27 09:08:02;;;;;;;5.97;3.85;;;;;;;;;;5024285;28;20033;-80
2022/06/27 09:10:49;;;;;;;3.97;2.92;;;;;;;;;;4995068;28;20034;-80
2022/06/27 09:13:20;;;;;;;2.38;2.05;;;;;;;;;;4996638;28;20030;-80
2022/06/27 09:15:56;;;;;;;2.08;1.88;;;;;;;;;;4997562;28;20030;-81
2022/06/27 09:18:34;;;;;;;9.15;2.78;;;;;;;;;;4997988;28;20442;-80
2022/06/27 09:21:02;;;;;;;5.97;4.35;;;;;;;;;;5023045;28;20029;-81
2022/06/27 09:26:35;;;;;;;2.95;1.80;;;;;;;;;;5025539;28;20032;-80
2022/06/27 09:29:06;;;;;;;3.58;3.25;;;;;;;;;;4997997;28;20060;-79
2022/06/27 09:31:59;;;;;;;5.57;2.65;;;;;;;;;;5012783;28;20037;-80
2022/06/27 09:34:24;;;;;;;1.77;1.55;;;;;;;;;;5011976;28;20351;-80
2022/06/27 09:37:00;;;;;;;3.67;1.58;;;;;;;;;;5012564;28;20040;-79
2022/06/27 09:39:29;;;;;;;2.25;2.05;;;;;;;;;;4998182;28;20025;-80
2022/06/27 09:41:59;;;;;;;1.80;1.42;;;;;;;;;;5001153;28;20034;-80
2022/06/27 09:44:30;;;;;;;2.17;1.63;;;;;;;;;;5013904;28;20040;-80
2022/06/27 09:47:04;;;;;;;2.17;1.98;;;;;;;;;;4996459;28;20034;-80
2022/06/27 09:49:39;;;;;;;3.90;1.90;;;;;;;;;;4989846;28;20029;-79
2022/06/27 09:52:08;;;;;;;1.25;1.02;;;;;;;;;;4979203;28;20061;-79
2022/06/27 09:54:34;;;;;;;1.95;1.58;;;;;;;;;;5006867;28;20025;-78
2022/06/27 09:57:16;;;;;;;4.72;1.70;;;;;;;;;;5003740;28;20066;-79
2022/06/27 09:59:43;;;;;;;2.58;1.77;;;;;;;;;;5009011;28;20049;-79
2022/06/27 10:02:09;;;;;;;2.40;1.58;;;;;;;;;;5009607;28;20100;-78
2022/06/27 10:04:36;;;;;;;2.22;2.00;;;;;;;;;;4990655;28;20030;-79
2022/06/27 10:07:02;;;;;;;1.35;0.88;;;;;;;;;;4998409;28;20121;-78
2022/06/27 10:09:32;;;;;;;1.58;1.05;;;;;;;;;;5015802;28;20545;-78
2022/06/27 10:15:30;;;;;;;2.75;1.10;;;;;;;;;;5020052;28;20155;-78
2022/06/27 10:18:02;;;;;;;3.45;2.22;;;;;;;;;;5000482;28;20037;-79
2022/06/27 10:20:39;;;;;;;1.27;1.13;;;;;;;;;;4988032;28;20541;-79
2022/06/27 10:23:13;;;;;;;7.38;3.05;;;;;;;;;;5023544;28;20152;-78
2022/06/27 10:25:45;;;;;;;6.95;2.53;;;;;;;;;;5014407;28;20032;-78
2022/06/27 10:28:26;;;;;;;2.10;1.50;;;;;;;;;;4986099;28;20117;-79
2022/06/27 10:31:02;;;;;;;2.85;1.52;;;;;;;;;;5011511;28;20100;-78
2022/06/27 10:34:07;;;;;;;3.65;2.40;;;;;;;;;;5003943;28;20121;-79
2022/06/27 10:36:41;;;;;;;1.27;1.15;;;;;;;;;;4994763;28;20022;-79
2022/06/27 10:39:19;;;;;;;4.90;1.95;;;;;;;;;;4994228;28;20276;-79
2022/06/27 10:41:50;;;;;;;2.95;2.30;;;;;;;;;;4995163;28;20026;-79
2022/06/27 10:44:30;;;;;;;2.30;2.05;;;;;;;;;;4990010;28;20355;-79
2022/06/27 10:47:01;;;;;;;2.50;1.75;;;;;;;;;;4978382;28;20108;-80
2022/06/27 10:53:18;;;;;;;2.85;2.53;;;;;;;;;;4994754;28;20122;-80
2022/06/27 10:55:49;;;;;;;3.15;2.38;;;;;;;;;;5001719;28;20037;-79
2022/06/27 10:58:33;;;;;;;1.48;1.13;;;;;;;;;;5013032;28;20033;-79
2022/06/27 11:01:40;;;;;;;1.60;1.30;;;;;;;;;;4997497;28;20030;-80
2022/06/27 11:04:25;;;;;;;2.85;2.15;;;;;;;;;;5013009;28;20034;-79
2022/06/27 11:06:59;;;;;;;2.55;2.13;;;;;;;;;;5009837;28;20030;-80
2022/06/27 11:09:36;;;;;;;3.42;2.00;;;;;;;;;;5002555;28;20017;-79
2022/06/27 11:12:41;;;;;;;4.93;2.78;;;;;;;;;;5033242;28;20065;-79
2022/06/27 11:15:16;;;;;;;2.13;1.92;;;;;;;;;;4991171;28;20045;-80
2022/06/27 11:17:45;;;;;;;6.45;3.33;;;;;;;;;;4993463;28;20057;-80
2022/06/27 11:20:25;;;;;;;4.13;3.60;;;;;;;;;;4993225;28;20052;-79
2022/06/27 11:23:01;;;;;;;3.60;2.70;;;;;;;;;;4996696;28;20046;-79
2022/06/27 11:25:30;;;;;;;10.57;4.15;;;;;;;;;;5013398;28;20025;-79
2022/06/27 11:31:57;;;;;;;5.63;3.67;;;;;;;;;;4996509;28;20521;-79
2022/06/27 11:33:31;;;;;;;3.13;2.17;;;;;;;;;;5012405;28;20037;-79
2022/06/27 11:35:56;;;;;;;6.07;5.45;;;;;;;;;;5003760;28;20026;-79
2022/06/27 11:38:29;;;;;;;5.80;4.03;;;;;;;;;;4998177;28;20498;-80
2022/06/27 11:41:00;;;;;;;8.65;4.22;;;;;;;;;;4997162;28;20454;-79
2022/06/27 11:43:48;;;;;;;4.68;2.72;;;;;;;;;;5023425;28;20749;-80
2022/06/27 11:46:24;;;;;;;4.75;3.80;;;;;;;;;;5020531;28;20025;-80
2022/06/27 11:48:53;;;;;;;9.18;4.05;;;;;;;;;;5004169;28;20341;-80
2022/06/27 11:51:27;;;;;;;4.68;3.38;;;;;;;;;;5000056;28;20029;-79
2022/06/27 11:54:01;;;;;;;6.13;3.85;;;;;;;;;;5000116;28;20030;-78
2022/06/27 11:56:29;;;;;;;5.65;3.55;;;;;;;;;;5016863;28;20065;-79
2022/06/27 11:58:55;;;;;;;6.57;3.42;;;;;;;;;;5018621;28;20029;-80
2022/06/27 12:01:22;;;;;;;6.45;4.03;;;;;;;;;;5000547;28;20026;-79
2022/06/27 12:04:12;;;;;;;4.85;3.75;;;;;;;;;;5006832;28;20026;-80
2022/06/27 12:06:52;;;;;;;6.03;2.88;;;;;;;;;;5015043;28;20040;-79
2022/06/27 12:09:18;;;;;;;4.20;3.13;;;;;;;;;;5017589;28;20049;-79
2022/06/27 12:11:56;;;;;;;5.15;3.65;;;;;;;;;;5008602;28;20065;-79
2022/06/27 12:14:22;;;;;;;4.50;2.53;;;;;;;;;;5024295;28;20372;-80
2022/06/27 12:16:57;;;;;;;4.78;3.28;;;;;;;;;;5007845;28;20045;-80
2022/06/27 12:19:23;;;;;;;2.80;2.50;;;;;;;;;;4999849;28;20045;-80
2022/06/27 12:21:49;;;;;;;5.32;4.28;;;;;;;;;;5015443;28;20048;-80
2022/06/27 12:24:15;;;;;;;4.65;2.97;;;;;;;;;;4997661;28;20431;-80
2022/06/27 12:26:41;;;;;;;6.55;3.60;;;;;;;;;;4985568;28;20108;-80
2022/06/27 12:29:09;;;;;;;8.45;4.97;;;;;;;;;;4993938;28;20025;-80
2022/06/27 12:31:38;;;;;;;5.40;3.83;;;;;;;;;;4998602;28;20080;-79
2022/06/27 12:34:04;;;;;;;4.55;2.55;;;;;;;;;;4996225;28;20057;-78
2022/06/27 12:36:31;;;;;;;6.00;4.50;;;;;;;;;;5016711;28;20036;-79
2022/06/27 12:39:01;;;;;;;2.92;2.60;;;;;;;;;;5018659;28;20581;-79
2022/06/27 12:41:26;;;;;;;5.50;3.50;;;;;;;;;;4999458;28;20035;-80
2022/06/27 12:43:56;;;;;;;5.72;4.43;;;;;;;;;;5008383;28;20028;-80
2022/06/27 12:46:22;;;;;;;7.45;3.53;;;;;;;;;;5015480;28;20033;-80
2022/06/27 12:48:48;;;;;;;3.08;2.45;;;;;;;;;;5014670;28;20033;-80
2022/06/27 12:51:16;;;;;;;5.22;2.83;;;;;;;;;;5016912;28;20025;-80
2022/06/27 12:53:42;;;;;;;4.70;3.60;;;;;;;;;;5000940;28;20030;-81
2022/06/27 12:56:08;;;;;;;5.20;3.35;;;;;;;;;;4998500;28;20354;-80
2022/06/27 12:58:34;;;;;;;7.90;4.25;;;;;;;;;;4991209;28;20474;-80
2022/06/27 13:01:04;;;;;;;4.55;2.63;;;;;;;;;;4997468;28;20026;-79
2022/06/27 13:03:30;;;;;;;3.83;3.45;;;;;;;;;;4998716;28;20459;-79
2022/06/27 13:05:55;;;;;;;6.18;3.88;;;;;;;;;;4996458;28;20034;-80
2022/06/27 13:08:25;;;;;;;4.50;3.42;;;;;;;;;;5015958;28;20033;-79
2022/06/27 13:10:51;;;;;;;22.23;5.18;;;;;;;;;;4999480;28;20100;-79
2022/06/27 13:13:16;;;;;;;4.95;2.75;;;;;;;;;;5016281;28;20113;-79
2022/06/27 13:15:41;;;;;;;4.50;2.63;;;;;;;;;;5015288;28;20021;-80
2022/06/27 13:18:07;;;;;;;10.05;4.35;;;;;;;;;;5014062;28;20040;-78
2022/06/27 13:20:36;;;;;;;5.97;3.15;;;;;;;;;;5016054;28;20026;-79
2022/06/27 13:23:04;;;;;;;2.60;2.40;;;;;;;;;;5015952;28;20040;-80
2022/06/27 13:25:29;;;;;;;6.88;2.92;;;;;;;;;;4998713;28;20053;-80
2022/06/27 13:27:57;;;;;;;2.75;2.10;;;;;;;;;;4992854;28;20100;-79
2022/06/27 13:30:22;;;;;;;14.02;3.90;;;;;;;;;;5014299;28;20026;-80
2022/06/27 13:32:48;;;;;;;29.75;5.40;;;;;;;;;;4998325;28;20040;-80
2022/06/27 13:35:15;;;;;;;4.30;2.22;;;;;;;;;;5014026;28;20033;-79
2022/06/27 13:37:43;;;;;;;2.78;2.03;;;;;;;;;;5014758;28;20114;-80
2022/06/27 13:40:12;;;;;;;3.47;3.15;;;;;;;;;;5011383;28;20029;-79
2022/06/27 13:42:40;;;;;;;1.50;1.30;;;;;;;;;;4996347;28;20041;-79
2022/06/27 13:45:07;;;;;;;2.58;2.20;;;;;;;;;;4992694;28;20061;-80
2022/06/27 13:47:32;;;;;;;4.38;2.67;;;;;;;;;;5004076;28;20090;-80
2022/06/27 13:50:01;;;;;;;2.25;1.65;;;;;;;;;;4996819;28;20113;-79
2022/06/27 13:52:29;;;;;;;2.22;1.95;;;;;;;;;;5012817;28;20019;-81
2022/06/27 13:54:57;;;;;;;2.55;1.98;;;;;;;;;;5013612;28;20030;-80
2022/06/27 13:57:22;;;;;;;3.85;3.03;;;;;;;;;;5012145;28;20029;-79
2022/06/27 13:59:47;;;;;;;3.08;2.65;;;;;;;;;;5017498;28;20359;-79
2022/06/27 14:02:13;;;;;;;2.75;2.13;;;;;;;;;;4997565;28;20439;-80
2022/06/27 14:04:38;;;;;;;2.05;1.85;;;;;;;;;;4992568;28;20117;-80
2022/06/27 14:07:44;;;;;;;2.53;2.30;;;;;;;;;;4988596;28;20464;-80
2022/06/27 14:10:23;;;;;;;2.20;2.00;;;;;;;;;;4999645;28;20053;-81
2022/06/27 14:12:49;;;;;;;6.05;3.35;;;;;;;;;;4995589;28;20032;-81
2022/06/27 14:15:15;;;;;;;3.03;2.35;;;;;;;;;;4996543;28;20138;-80
2022/06/27 14:18:08;;;;;;;3.58;2.95;;;;;;;;;;4996482;28;20033;-79
2022/06/27 14:20:46;;;;;;;3.30;2.97;;;;;;;;;;4996400;28;20026;-80
2022/06/27 14:23:11;;;;;;;2.38;1.83;;;;;;;;;;5004332;28;20091;-81
2022/06/27 14:25:44;;;;;;;2.15;2.00;;;;;;;;;;4994035;28;20026;-80
2022/06/27 14:28:12;;;;;;;6.28;4.45;;;;;;;;;;4998333;28;20026;-82
2022/06/27 14:30:37;;;;;;;3.63;3.13;;;;;;;;;;4997534;28;20109;-80
2022/06/27 14:33:03;;;;;;;2.72;2.50;;;;;;;;;;4993260;28;20475;-81
2022/06/27 14:35:33;;;;;;;3.33;2.58;;;;;;;;;;4996248;28;20037;-80
2022/06/27 14:38:01;;;;;;;5.63;3.30;;;;;;;;;;4996273;28;20026;-80
2022/06/27 14:40:26;;;;;;;12.07;2.92;;;;;;;;;;4996736;28;20025;-80
2022/06/27 14:43:09;;;;;;;5.60;2.75;;;;;;;;;;4997642;28;20569;-80
2022/06/27 14:45:46;;;;;;;4.05;2.63;;;;;;;;;;4998856;28;20027;-81
2022/06/27 14:48:12;;;;;;;3.40;3.13;;;;;;;;;;4997470;28;20025;-80
2022/06/27 14:50:37;;;;;;;5.28;2.55;;;;;;;;;;4996870;28;20053;-80
2022/06/27 14:53:34;;;;;;;3.28;2.17;;;;;;;;;;4999212;28;20402;-80
2022/06/27 14:56:15;;;;;;;4.20;2.47;;;;;;;;;;4992347;28;20147;-81
2022/06/27 14:59:00;;;;;;;2.75;2.20;;;;;;;;;;4994275;28;20047;-80
2022/06/27 15:01:27;;;;;;;2.50;2.22;;;;;;;;;;5004405;28;20034;-80
2022/06/27 15:03:53;;;;;;;3.22;2.15;;;;;;;;;;4995100;28;20168;-80
2022/06/27 15:06:18;;;;;;;2.10;1.90;;;;;;;;;;4996123;28;20117;-79
2022/06/27 15:08:44;;;;;;;2.30;1.60;;;;;;;;;;4996204;28;20180;-79
2022/06/27 15:13:57;;;;;;;1.83;1.73;;;;;;;;;;5011454;28;20045;-80
2022/06/27 15:16:31;;;;;;;1.10;1.00;;;;;;;;;;4996751;28;20021;-81
2022/06/27 15:18:56;;;;;;;0.38;0.28;;;;;;;;;;5012733;28;20407;-80